Time;durP1;ratioP1;P1;durP2;ratioP2;P2;SDS_P1;SDS_P2;PMS_P1;PMS_P2;Temp;Humidity;BMP_temperature;BMP_pressure;BME280_temperature;BME280_humidity;BME280_pressure;Samples;Min_cycle;Max_cycle;Signal;HPM_P1;HPM_P2
2023/01/17 00:01:27;;;;;;;4.03;1.23;;;;;;;;;;5075561;28;20239;-84
2023/01/17 00:12:15;;;;;;;3.03;1.50;;;;;;;;;;5075464;28;20201;-84
2023/01/17 00:14:43;;;;;;;5.00;1.80;;;;;;;;;;5075472;28;20229;-84
2023/01/17 00:17:11;;;;;;;8.67;3.23;;;;;;;;;;5074497;28;20239;-84
2023/01/17 01:35:34;;;;;;;1.57;1.47;;;;;;;;;;5074053;28;20218;-86
2023/01/17 01:38:02;;;;;;;2.33;1.60;;;;;;;;;;5073012;28;20200;-86
2023/01/17 01:40:31;;;;;;;0.80;0.80;;;;;;;;;;5073945;28;20203;-86
2023/01/17 01:43:04;;;;;;;0.70;0.70;;;;;;;;;;5074076;28;20204;-86
2023/01/17 01:45:33;;;;;;;0.80;0.80;;;;;;;;;;5072678;28;20213;-85
2023/01/17 01:48:03;;;;;;;0.73;0.73;;;;;;;;;;5072787;28;20201;-85
2023/01/17 01:50:32;;;;;;;0.70;0.70;;;;;;;;;;5072881;28;20292;-85
2023/01/17 01:53:02;;;;;;;0.80;0.80;;;;;;;;;;5073775;28;20219;-85
2023/01/17 01:55:33;;;;;;;0.70;0.70;;;;;;;;;;5072855;28;20209;-85
2023/01/17 01:58:04;;;;;;;0.70;0.70;;;;;;;;;;5074030;28;20251;-85
2023/01/17 02:00:34;;;;;;;0.70;0.70;;;;;;;;;;5072884;28;20227;-85
2023/01/17 02:03:05;;;;;;;0.70;0.70;;;;;;;;;;5073832;28;20268;-85
2023/01/17 02:05:34;;;;;;;0.70;0.70;;;;;;;;;;5072349;28;20315;-85
2023/01/17 02:08:03;;;;;;;0.80;0.80;;;;;;;;;;5073880;28;20329;-85
2023/01/17 02:10:33;;;;;;;0.80;0.80;;;;;;;;;;5073780;28;20260;-85
2023/01/17 02:13:02;;;;;;;0.80;0.80;;;;;;;;;;5072465;28;20199;-85
2023/01/17 02:15:33;;;;;;;0.70;0.70;;;;;;;;;;5072203;28;20314;-85
2023/01/17 02:18:10;;;;;;;0.80;0.80;;;;;;;;;;5073642;28;20279;-84
2023/01/17 02:20:57;;;;;;;0.80;0.80;;;;;;;;;;5072856;28;20243;-85
2023/01/17 02:23:43;;;;;;;0.80;0.80;;;;;;;;;;5072671;28;20193;-85
2023/01/17 02:26:29;;;;;;;0.80;0.80;;;;;;;;;;5073613;28;20194;-84
2023/01/17 02:29:09;;;;;;;0.80;0.80;;;;;;;;;;5072568;28;20204;-85
2023/01/17 02:31:42;;;;;;;0.80;0.80;;;;;;;;;;5073746;28;20222;-85
2023/01/17 02:34:16;;;;;;;0.80;0.80;;;;;;;;;;5071969;28;20527;-85
2023/01/17 02:36:46;;;;;;;0.80;0.80;;;;;;;;;;5073643;28;20280;-85
2023/01/17 02:39:18;;;;;;;0.70;0.70;;;;;;;;;;5073388;28;20234;-85
2023/01/17 02:41:48;;;;;;;0.80;0.80;;;;;;;;;;5072398;28;20195;-85
2023/01/17 02:44:17;;;;;;;0.80;0.80;;;;;;;;;;5073209;28;20226;-83
2023/01/17 02:46:48;;;;;;;0.80;0.80;;;;;;;;;;5072107;28;20209;-83
2023/01/17 02:49:17;;;;;;;0.80;0.80;;;;;;;;;;5072233;28;20231;-83
2023/01/17 02:52:06;;;;;;;0.70;0.70;;;;;;;;;;5072024;28;20192;-83
2023/01/17 02:54:43;;;;;;;0.80;0.80;;;;;;;;;;5069386;28;20243;-83
2023/01/17 02:57:18;;;;;;;0.80;0.80;;;;;;;;;;5077210;28;20230;-83
2023/01/17 02:59:50;;;;;;;0.70;0.70;;;;;;;;;;5076857;28;20319;-83
2023/01/17 03:02:23;;;;;;;0.80;0.80;;;;;;;;;;5075565;28;20204;-84
2023/01/17 03:04:53;;;;;;;0.80;0.80;;;;;;;;;;5076803;28;20195;-84
2023/01/17 03:07:24;;;;;;;0.80;0.80;;;;;;;;;;5075590;28;20206;-84
2023/01/17 03:09:58;;;;;;;0.70;0.70;;;;;;;;;;5075644;28;20199;-84
2023/01/17 03:12:27;;;;;;;0.80;0.80;;;;;;;;;;5076624;28;20285;-84
2023/01/17 03:14:56;;;;;;;0.80;0.80;;;;;;;;;;5075374;28;20222;-84
2023/01/17 03:17:28;;;;;;;0.80;0.80;;;;;;;;;;5076720;28;20203;-84
2023/01/17 03:19:57;;;;;;;0.80;0.80;;;;;;;;;;5075319;28;20305;-84
2023/01/17 03:22:25;;;;;;;0.80;0.80;;;;;;;;;;5076788;28;20195;-85
2023/01/17 03:24:54;;;;;;;0.80;0.80;;;;;;;;;;5076368;28;20232;-85
2023/01/17 03:27:22;;;;;;;0.70;0.70;;;;;;;;;;5075611;28;20185;-85
2023/01/17 03:29:50;;;;;;;0.80;0.80;;;;;;;;;;5076003;28;20237;-85
2023/01/17 03:32:19;;;;;;;0.80;0.80;;;;;;;;;;5075042;28;20259;-86
2023/01/17 03:34:48;;;;;;;0.80;0.80;;;;;;;;;;5074904;28;20221;-86
2023/01/17 03:37:16;;;;;;;0.80;0.80;;;;;;;;;;5075227;28;20234;-86
2023/01/17 03:39:45;;;;;;;0.80;0.80;;;;;;;;;;5075254;28;20199;-86
2023/01/17 03:42:13;;;;;;;0.80;0.80;;;;;;;;;;5076215;28;20200;-87
2023/01/17 03:44:42;;;;;;;0.80;0.80;;;;;;;;;;5075093;28;20192;-87
2023/01/17 03:47:10;;;;;;;0.80;0.80;;;;;;;;;;5075863;28;20259;-87
2023/01/17 03:49:39;;;;;;;0.80;0.80;;;;;;;;;;5075709;28;20284;-87
2023/01/17 03:52:09;;;;;;;0.80;0.80;;;;;;;;;;5075049;28;20208;-87
2023/01/17 03:54:37;;;;;;;0.80;0.80;;;;;;;;;;5074709;28;20221;-87
2023/01/17 03:57:07;;;;;;;0.80;0.80;;;;;;;;;;5074740;28;20208;-88
2023/01/17 03:59:35;;;;;;;0.80;0.80;;;;;;;;;;5074577;28;20207;-87
2023/01/17 04:02:04;;;;;;;0.80;0.80;;;;;;;;;;5074533;28;20222;-85
2023/01/17 04:04:32;;;;;;;0.80;0.80;;;;;;;;;;5073529;28;20206;-88
2023/01/17 04:07:01;;;;;;;0.77;0.77;;;;;;;;;;5074410;28;20252;-88
2023/01/17 04:09:32;;;;;;;0.70;0.70;;;;;;;;;;5074511;28;20201;-87
2023/01/17 04:12:01;;;;;;;0.80;0.80;;;;;;;;;;5075674;28;20202;-88
2023/01/17 04:14:29;;;;;;;0.80;0.80;;;;;;;;;;5074524;28;20288;-89
2023/01/17 04:16:58;;;;;;;0.80;0.80;;;;;;;;;;5074572;28;20195;-87
2023/01/17 04:19:27;;;;;;;0.70;0.70;;;;;;;;;;5074335;28;20230;-89
2023/01/17 04:21:55;;;;;;;0.80;0.80;;;;;;;;;;5074276;28;20197;-88
2023/01/17 04:24:23;;;;;;;0.80;0.80;;;;;;;;;;5075206;28;20299;-89
2023/01/17 04:26:53;;;;;;;0.80;0.80;;;;;;;;;;5074192;28;20199;-89
2023/01/17 04:29:22;;;;;;;0.80;0.80;;;;;;;;;;5075240;28;20230;-89
2023/01/17 04:31:50;;;;;;;0.80;0.80;;;;;;;;;;5074422;28;20229;-89
2023/01/17 04:34:18;;;;;;;0.70;0.70;;;;;;;;;;5073901;28;20218;-88
2023/01/17 04:36:47;;;;;;;0.80;0.80;;;;;;;;;;5075092;28;20215;-90
2023/01/17 04:39:15;;;;;;;0.70;0.70;;;;;;;;;;5074185;28;20203;-89
2023/01/17 04:41:44;;;;;;;0.80;0.80;;;;;;;;;;5073711;28;20312;-90
2023/01/17 04:44:16;;;;;;;0.80;0.80;;;;;;;;;;5073998;28;20205;-90
2023/01/17 04:46:44;;;;;;;0.80;0.80;;;;;;;;;;5073954;28;20189;-90
2023/01/17 04:49:13;;;;;;;0.73;0.73;;;;;;;;;;5073641;28;20199;-90
2023/01/17 04:51:41;;;;;;;0.80;0.80;;;;;;;;;;5073995;28;20204;-89
2023/01/17 04:54:10;;;;;;;0.77;0.77;;;;;;;;;;5073456;28;20239;-90
2023/01/17 04:56:38;;;;;;;0.70;0.70;;;;;;;;;;5073677;28;20217;-90
2023/01/17 04:59:06;;;;;;;0.80;0.80;;;;;;;;;;5073781;28;20197;-90
2023/01/17 05:01:36;;;;;;;0.70;0.70;;;;;;;;;;5073628;28;20252;-91
2023/01/17 05:04:05;;;;;;;0.80;0.80;;;;;;;;;;5073698;28;20204;-89
2023/01/17 05:06:33;;;;;;;0.80;0.80;;;;;;;;;;5073094;28;20218;-89
2023/01/17 05:09:02;;;;;;;0.70;0.70;;;;;;;;;;5073382;28;20233;-89
2023/01/17 05:11:30;;;;;;;0.70;0.70;;;;;;;;;;5073490;28;20270;-88
2023/01/17 05:13:59;;;;;;;0.70;0.70;;;;;;;;;;5073857;28;20198;-90
2023/01/17 05:16:27;;;;;;;0.70;0.70;;;;;;;;;;5072732;28;20249;-89
2023/01/17 05:18:57;;;;;;;0.77;0.77;;;;;;;;;;5073364;28;20252;-88
2023/01/17 05:21:25;;;;;;;0.70;0.70;;;;;;;;;;5073333;28;20219;-89
2023/01/17 05:23:54;;;;;;;0.80;0.80;;;;;;;;;;5072980;28;20227;-90
2023/01/17 05:26:22;;;;;;;0.70;0.70;;;;;;;;;;5073152;28;20200;-89
2023/01/17 05:28:51;;;;;;;0.80;0.80;;;;;;;;;;5073285;28;20258;-89
2023/01/17 05:31:19;;;;;;;0.80;0.80;;;;;;;;;;5073002;28;20206;-89
2023/01/17 05:33:48;;;;;;;0.70;0.70;;;;;;;;;;5073371;28;20359;-89
2023/01/17 05:36:17;;;;;;;0.70;0.70;;;;;;;;;;5073362;28;20217;-88
2023/01/17 05:38:48;;;;;;;0.80;0.80;;;;;;;;;;5073277;28;20198;-88
2023/01/17 05:41:16;;;;;;;0.70;0.70;;;;;;;;;;5072705;28;20237;-88
2023/01/17 05:43:45;;;;;;;0.70;0.70;;;;;;;;;;5072850;28;20228;-88
2023/01/17 05:46:14;;;;;;;0.80;0.80;;;;;;;;;;5072939;28;20192;-89
2023/01/17 05:48:43;;;;;;;0.80;0.80;;;;;;;;;;5072862;28;20297;-88
2023/01/17 05:51:11;;;;;;;0.80;0.80;;;;;;;;;;5073075;28;20223;-89
2023/01/17 05:53:41;;;;;;;0.80;0.80;;;;;;;;;;5072775;28;20205;-88
2023/01/17 05:56:09;;;;;;;0.70;0.70;;;;;;;;;;5073945;28;20212;-88
2023/01/17 05:58:38;;;;;;;0.70;0.70;;;;;;;;;;5072485;28;20201;-89
2023/01/17 06:01:07;;;;;;;0.80;0.80;;;;;;;;;;5073815;28;20209;-89
2023/01/17 06:03:35;;;;;;;0.70;0.70;;;;;;;;;;5072842;28;20201;-88
2023/01/17 06:06:05;;;;;;;0.80;0.80;;;;;;;;;;5072346;28;20377;-88
2023/01/17 06:08:34;;;;;;;0.80;0.80;;;;;;;;;;5072700;28;20307;-88
2023/01/17 06:11:03;;;;;;;0.70;0.70;;;;;;;;;;5073942;28;20210;-87
2023/01/17 06:13:32;;;;;;;0.70;0.70;;;;;;;;;;5072422;28;20208;-88
2023/01/17 06:16:02;;;;;;;0.70;0.70;;;;;;;;;;5072386;28;20263;-88
2023/01/17 06:18:31;;;;;;;0.80;0.80;;;;;;;;;;5072537;28;20204;-88
2023/01/17 06:21:00;;;;;;;0.80;0.80;;;;;;;;;;5072738;28;20227;-89
2023/01/17 06:23:28;;;;;;;0.70;0.70;;;;;;;;;;5072601;28;20202;-88
2023/01/17 06:25:57;;;;;;;0.80;0.80;;;;;;;;;;5073699;28;20201;-88
2023/01/17 06:28:26;;;;;;;0.80;0.80;;;;;;;;;;5073943;28;20251;-88
2023/01/17 06:30:55;;;;;;;0.70;0.70;;;;;;;;;;5076501;28;20197;-88
2023/01/17 06:33:23;;;;;;;0.70;0.70;;;;;;;;;;5077267;28;20284;-88
2023/01/17 06:35:52;;;;;;;0.80;0.80;;;;;;;;;;5077191;28;20223;-88
2023/01/17 06:38:21;;;;;;;0.80;0.80;;;;;;;;;;5077171;28;20201;-88
2023/01/17 06:40:49;;;;;;;0.80;0.80;;;;;;;;;;5076470;28;20283;-87
2023/01/17 06:43:18;;;;;;;0.80;0.80;;;;;;;;;;5076581;28;20193;-87
2023/01/17 06:45:47;;;;;;;0.80;0.80;;;;;;;;;;5076407;28;20205;-88
2023/01/17 06:48:18;;;;;;;0.80;0.80;;;;;;;;;;5076583;28;20202;-88
2023/01/17 06:50:48;;;;;;;0.80;0.80;;;;;;;;;;5077628;28;20205;-88
2023/01/17 06:53:17;;;;;;;0.80;0.80;;;;;;;;;;5075932;28;20204;-88
2023/01/17 06:55:45;;;;;;;0.80;0.80;;;;;;;;;;5075770;28;20296;-88
2023/01/17 06:58:13;;;;;;;0.80;0.80;;;;;;;;;;5076008;28;20231;-88
2023/01/17 07:00:42;;;;;;;0.80;0.80;;;;;;;;;;5076079;28;20270;-88
2023/01/17 07:03:15;;;;;;;0.70;0.70;;;;;;;;;;5076955;28;20202;-87
2023/01/17 07:05:43;;;;;;;0.80;0.80;;;;;;;;;;5077102;28;20282;-87
2023/01/17 07:08:11;;;;;;;0.73;0.73;;;;;;;;;;5076725;28;20217;-88
2023/01/17 07:10:40;;;;;;;0.80;0.80;;;;;;;;;;5076037;28;20208;-88
2023/01/17 07:13:08;;;;;;;2.17;1.57;;;;;;;;;;5076728;28;20201;-87
2023/01/17 07:15:36;;;;;;;2.40;1.53;;;;;;;;;;5075651;28;20201;-87
2023/01/17 07:18:05;;;;;;;1.23;1.23;;;;;;;;;;5076263;28;20216;-86
2023/01/17 07:20:34;;;;;;;1.30;1.13;;;;;;;;;;5075475;28;20229;-87
2023/01/17 07:23:03;;;;;;;1.47;1.37;;;;;;;;;;5075465;28;20299;-88
2023/01/17 07:25:31;;;;;;;1.27;1.17;;;;;;;;;;5076322;28;20266;-88
2023/01/17 07:28:00;;;;;;;2.20;1.53;;;;;;;;;;5076431;28;20255;-88
2023/01/17 07:30:28;;;;;;;1.00;1.00;;;;;;;;;;5076046;28;20202;-88
2023/01/17 07:32:57;;;;;;;10.63;2.00;;;;;;;;;;5075055;28;20233;-88
2023/01/17 07:35:29;;;;;;;1.53;1.40;;;;;;;;;;5074886;28;20201;-89
2023/01/17 07:38:01;;;;;;;0.90;0.90;;;;;;;;;;5075327;28;20217;-89
2023/01/17 07:40:30;;;;;;;4.33;1.77;;;;;;;;;;5075230;28;20228;-89
2023/01/17 07:43:12;;;;;;;1.10;1.10;;;;;;;;;;5075421;28;20232;-88
2023/01/17 07:45:48;;;;;;;1.00;1.00;;;;;;;;;;5075097;28;20287;-88
2023/01/17 07:48:17;;;;;;;3.90;1.50;;;;;;;;;;5075075;28;20197;-89
2023/01/17 07:50:46;;;;;;;1.27;1.13;;;;;;;;;;5074796;28;20210;-88
2023/01/17 07:53:16;;;;;;;1.90;1.70;;;;;;;;;;5075361;28;20209;-88
2023/01/17 07:55:50;;;;;;;1.60;1.60;;;;;;;;;;5075189;28;20240;-88
2023/01/17 07:58:19;;;;;;;3.30;1.40;;;;;;;;;;5074861;28;20218;-88
2023/01/17 08:00:48;;;;;;;2.10;1.40;;;;;;;;;;5075817;28;20193;-87
2023/01/17 08:03:18;;;;;;;2.87;2.60;;;;;;;;;;5075945;28;20206;-88
2023/01/17 08:05:53;;;;;;;0.90;0.90;;;;;;;;;;5074464;28;20221;-88
2023/01/17 08:08:25;;;;;;;0.80;0.80;;;;;;;;;;5074667;28;20201;-88
2023/01/17 08:10:54;;;;;;;4.03;2.10;;;;;;;;;;5074741;28;20208;-88
2023/01/17 08:13:23;;;;;;;0.90;0.90;;;;;;;;;;5074480;28;20205;-88
2023/01/17 08:15:53;;;;;;;1.23;1.23;;;;;;;;;;5074464;28;20201;-88
2023/01/17 08:18:22;;;;;;;1.63;1.50;;;;;;;;;;5074499;28;20242;-88
2023/01/17 08:20:53;;;;;;;1.73;1.63;;;;;;;;;;5074247;28;20203;-89
2023/01/17 08:23:25;;;;;;;1.10;1.10;;;;;;;;;;5074537;28;20193;-88
2023/01/17 08:25:54;;;;;;;1.40;1.30;;;;;;;;;;5074304;28;20198;-88
2023/01/17 08:28:33;;;;;;;0.97;0.97;;;;;;;;;;5074091;28;20200;-87
2023/01/17 08:31:06;;;;;;;2.13;2.03;;;;;;;;;;5072757;28;20300;-87
2023/01/17 08:33:37;;;;;;;1.20;1.20;;;;;;;;;;5074733;28;20211;-88
2023/01/17 08:36:06;;;;;;;0.80;0.80;;;;;;;;;;5079908;28;20200;-84
2023/01/17 08:38:36;;;;;;;2.27;1.37;;;;;;;;;;5079198;28;20216;-85
2023/01/17 08:41:05;;;;;;;4.03;1.27;;;;;;;;;;5088287;28;20220;-87
2023/01/17 08:43:33;;;;;;;11.03;2.30;;;;;;;;;;5084856;28;20227;-86
2023/01/17 08:46:02;;;;;;;3.20;1.50;;;;;;;;;;5084919;28;20263;-88
2023/01/17 08:48:31;;;;;;;1.00;1.00;;;;;;;;;;5085453;28;20196;-85
2023/01/17 08:51:12;;;;;;;2.27;1.63;;;;;;;;;;5076057;28;21462;-86
2023/01/17 08:53:42;;;;;;;2.70;1.33;;;;;;;;;;5080707;28;20194;-88
2023/01/17 08:56:10;;;;;;;1.70;1.40;;;;;;;;;;5072967;28;20216;-87
2023/01/17 08:58:40;;;;;;;1.20;1.20;;;;;;;;;;5081470;28;20213;-88
2023/01/17 09:01:08;;;;;;;5.67;2.00;;;;;;;;;;5077412;28;20219;-86
2023/01/17 09:03:37;;;;;;;1.40;1.30;;;;;;;;;;5074373;28;20250;-89
2023/01/17 09:06:09;;;;;;;1.70;1.13;;;;;;;;;;5076047;28;20232;-90
2023/01/17 09:08:38;;;;;;;4.43;2.80;;;;;;;;;;5077272;28;20201;-89
2023/01/17 09:11:09;;;;;;;2.17;1.60;;;;;;;;;;5077628;28;20267;-88
2023/01/17 09:13:38;;;;;;;0.93;0.93;;;;;;;;;;5077977;28;20201;-89
2023/01/17 09:16:07;;;;;;;1.10;1.10;;;;;;;;;;5077695;28;20261;-90
2023/01/17 09:18:36;;;;;;;0.93;0.93;;;;;;;;;;5094867;28;20275;-88
2023/01/17 09:21:10;;;;;;;2.10;1.97;;;;;;;;;;5078031;28;20296;-88
2023/01/17 09:23:39;;;;;;;7.03;1.90;;;;;;;;;;5084456;28;20243;-89
2023/01/17 09:26:15;;;;;;;0.80;0.80;;;;;;;;;;5081421;28;20196;-87
2023/01/17 09:28:43;;;;;;;4.97;2.10;;;;;;;;;;5075153;28;20216;-87
2023/01/17 09:31:12;;;;;;;2.03;1.07;;;;;;;;;;5074989;28;20225;-87
2023/01/17 09:33:42;;;;;;;1.60;1.50;;;;;;;;;;5076527;28;20197;-89
2023/01/17 09:36:11;;;;;;;1.63;1.40;;;;;;;;;;5084926;28;20239;-89
2023/01/17 09:38:41;;;;;;;1.90;1.10;;;;;;;;;;5091710;28;20286;-87
2023/01/17 09:41:26;;;;;;;1.70;1.60;;;;;;;;;;5076530;28;20201;-86
2023/01/17 09:43:57;;;;;;;5.47;1.73;;;;;;;;;;5092238;28;20192;-89
2023/01/17 09:46:27;;;;;;;1.10;1.10;;;;;;;;;;5081026;28;20209;-88
2023/01/17 09:49:00;;;;;;;1.20;1.20;;;;;;;;;;5078636;28;20252;-84
2023/01/17 09:51:28;;;;;;;2.33;2.07;;;;;;;;;;5078775;28;20213;-86
2023/01/17 09:53:57;;;;;;;2.63;1.40;;;;;;;;;;5081149;28;20208;-85
2023/01/17 09:56:30;;;;;;;1.23;1.13;;;;;;;;;;5081038;28;20213;-85
2023/01/17 09:59:15;;;;;;;2.50;1.50;;;;;;;;;;5079926;28;20220;-83
2023/01/17 10:01:51;;;;;;;3.70;1.57;;;;;;;;;;5089426;28;20215;-82
2023/01/17 10:04:28;;;;;;;2.53;1.70;;;;;;;;;;5085425;28;20207;-85
2023/01/17 10:07:01;;;;;;;0.90;0.90;;;;;;;;;;5090663;28;20252;-85
2023/01/17 10:09:36;;;;;;;1.33;1.33;;;;;;;;;;5086125;28;20202;-85
2023/01/17 10:12:19;;;;;;;1.27;1.17;;;;;;;;;;5084743;28;20218;-85
2023/01/17 10:14:56;;;;;;;1.00;1.00;;;;;;;;;;5079755;28;20199;-84
2023/01/17 10:17:35;;;;;;;6.90;1.37;;;;;;;;;;5076071;28;20200;-87
2023/01/17 10:20:13;;;;;;;1.10;1.00;;;;;;;;;;5092858;28;20232;-85
2023/01/17 10:22:51;;;;;;;4.80;2.17;;;;;;;;;;5073577;28;20282;-84
2023/01/17 10:25:32;;;;;;;1.43;1.00;;;;;;;;;;5072190;28;20209;-86
2023/01/17 10:28:05;;;;;;;1.10;1.10;;;;;;;;;;5070550;28;20220;-84
2023/01/17 10:30:35;;;;;;;1.20;1.20;;;;;;;;;;5073647;28;20201;-86
2023/01/17 10:33:12;;;;;;;1.10;1.00;;;;;;;;;;5073988;28;20294;-86
2023/01/17 10:35:46;;;;;;;1.10;0.90;;;;;;;;;;5073778;28;20193;-86
2023/01/17 10:38:16;;;;;;;2.97;1.93;;;;;;;;;;5076418;28;20204;-86
2023/01/17 10:40:49;;;;;;;0.73;0.73;;;;;;;;;;5074540;28;20197;-87
2023/01/17 10:43:22;;;;;;;2.97;1.20;;;;;;;;;;5075547;28;20208;-87
2023/01/17 10:45:53;;;;;;;2.00;1.10;;;;;;;;;;5076053;28;20286;-86
2023/01/17 10:48:34;;;;;;;2.83;1.90;;;;;;;;;;5074210;28;20242;-85
2023/01/17 10:51:09;;;;;;;1.00;1.00;;;;;;;;;;5076710;28;20250;-84
2023/01/17 10:53:42;;;;;;;1.43;1.33;;;;;;;;;;5077857;28;20197;-84
2023/01/17 10:56:13;;;;;;;3.80;1.53;;;;;;;;;;5074613;28;20194;-84
2023/01/17 10:58:43;;;;;;;0.70;0.70;;;;;;;;;;5074554;28;20249;-83
2023/01/17 11:01:14;;;;;;;2.80;0.97;;;;;;;;;;5082204;28;20208;-84
2023/01/17 11:03:44;;;;;;;0.90;0.90;;;;;;;;;;5079002;28;20209;-85
2023/01/17 11:06:16;;;;;;;1.57;1.47;;;;;;;;;;5075193;28;20230;-83
2023/01/17 11:08:52;;;;;;;0.90;0.90;;;;;;;;;;5076472;28;20197;-84
2023/01/17 11:11:22;;;;;;;1.57;1.20;;;;;;;;;;5076797;28;20251;-83
2023/01/17 11:13:52;;;;;;;1.37;1.27;;;;;;;;;;5075408;28;20206;-82
2023/01/17 11:16:23;;;;;;;1.00;1.00;;;;;;;;;;5083183;28;20193;-82
2023/01/17 11:19:07;;;;;;;1.30;1.20;;;;;;;;;;5077343;28;20279;-85
2023/01/17 11:21:37;;;;;;;1.03;1.03;;;;;;;;;;5083267;28;20238;-85
2023/01/17 11:24:10;;;;;;;0.90;0.90;;;;;;;;;;5083573;28;20266;-83
2023/01/17 11:26:48;;;;;;;0.90;0.90;;;;;;;;;;5085254;28;20189;-83
2023/01/17 11:29:27;;;;;;;0.90;0.90;;;;;;;;;;5088544;28;20189;-84
2023/01/17 11:31:56;;;;;;;1.10;1.10;;;;;;;;;;5080674;28;20217;-87
2023/01/17 11:34:24;;;;;;;7.70;1.70;;;;;;;;;;5076570;28;20297;-85
2023/01/17 11:37:09;;;;;;;1.83;0.93;;;;;;;;;;5080345;28;20205;-84
2023/01/17 11:39:37;;;;;;;1.00;1.00;;;;;;;;;;5078539;28;20252;-82
2023/01/17 11:42:08;;;;;;;1.43;1.23;;;;;;;;;;5074902;28;20219;-82
2023/01/17 11:44:39;;;;;;;2.13;1.40;;;;;;;;;;5094342;28;20208;-82
2023/01/17 11:47:10;;;;;;;1.47;1.37;;;;;;;;;;5085348;28;20240;-87
2023/01/17 11:49:39;;;;;;;9.63;1.80;;;;;;;;;;5083596;28;20235;-83
2023/01/17 11:52:10;;;;;;;2.73;1.47;;;;;;;;;;5082140;28;20214;-83
2023/01/17 11:54:41;;;;;;;2.10;1.67;;;;;;;;;;5085515;28;20197;-84
2023/01/17 11:57:20;;;;;;;1.60;1.43;;;;;;;;;;5084178;28;20197;-83
2023/01/17 11:59:51;;;;;;;1.07;1.07;;;;;;;;;;5079886;28;20239;-85
2023/01/17 12:02:40;;;;;;;2.77;1.50;;;;;;;;;;5077085;28;20197;-85
2023/01/17 12:05:18;;;;;;;2.00;1.30;;;;;;;;;;5079155;28;20315;-83
2023/01/17 12:07:50;;;;;;;0.90;0.90;;;;;;;;;;5076565;28;20201;-81
2023/01/17 12:10:21;;;;;;;1.53;1.43;;;;;;;;;;5079450;28;20225;-82
2023/01/17 12:15:51;;;;;;;1.63;1.53;;;;;;;;;;5081164;28;20284;-81
2023/01/17 12:18:30;;;;;;;1.40;1.30;;;;;;;;;;5075956;28;20201;-82
2023/01/17 12:21:05;;;;;;;1.00;1.00;;;;;;;;;;5078347;28;20241;-81
2023/01/17 12:23:47;;;;;;;1.73;1.40;;;;;;;;;;5079473;28;20207;-81
2023/01/17 12:26:23;;;;;;;2.63;1.27;;;;;;;;;;5076528;28;20284;-80
2023/01/17 12:29:00;;;;;;;1.80;1.00;;;;;;;;;;5077590;28;20200;-83
2023/01/17 12:31:33;;;;;;;1.17;1.13;;;;;;;;;;5077375;28;20201;-81
2023/01/17 12:34:13;;;;;;;1.33;1.23;;;;;;;;;;5081124;28;20201;-82
2023/01/17 12:36:44;;;;;;;1.00;1.00;;;;;;;;;;5080123;28;20204;-82
2023/01/17 12:39:17;;;;;;;1.83;1.73;;;;;;;;;;5077636;28;20212;-82
2023/01/17 12:41:51;;;;;;;0.90;0.90;;;;;;;;;;5077544;28;20280;-83
2023/01/17 12:44:24;;;;;;;2.00;1.20;;;;;;;;;;5080225;28;20275;-83
2023/01/17 12:46:59;;;;;;;0.93;0.93;;;;;;;;;;5082722;28;20201;-83
2023/01/17 12:49:33;;;;;;;1.30;1.20;;;;;;;;;;5075956;28;20200;-82
2023/01/17 12:52:04;;;;;;;3.33;1.30;;;;;;;;;;5079869;28;20208;-83
2023/01/17 12:54:36;;;;;;;1.50;1.40;;;;;;;;;;5081553;28;20201;-84
2023/01/17 12:57:06;;;;;;;1.10;1.10;;;;;;;;;;5078778;28;20197;-84
2023/01/17 12:59:38;;;;;;;90.90;6.60;;;;;;;;;;5077805;28;20205;-82
2023/01/17 13:02:15;;;;;;;1.20;1.20;;;;;;;;;;5084858;28;20208;-83
2023/01/17 13:04:47;;;;;;;1.27;1.17;;;;;;;;;;5076757;28;20197;-85
2023/01/17 13:07:29;;;;;;;0.80;0.80;;;;;;;;;;5073925;28;20230;-82
2023/01/17 13:10:01;;;;;;;2.93;1.87;;;;;;;;;;5076465;28;20208;-82
2023/01/17 13:12:31;;;;;;;2.13;1.70;;;;;;;;;;5076355;28;20213;-82
2023/01/17 13:15:05;;;;;;;0.80;0.80;;;;;;;;;;5076609;28;20205;-82
2023/01/17 13:17:38;;;;;;;1.03;1.03;;;;;;;;;;5075120;28;20205;-81
2023/01/17 13:20:13;;;;;;;1.03;1.03;;;;;;;;;;5075297;28;20233;-86
2023/01/17 13:22:42;;;;;;;1.00;1.00;;;;;;;;;;5079058;28;20283;-83
2023/01/17 13:25:16;;;;;;;1.50;1.40;;;;;;;;;;5077961;28;20201;-84
2023/01/17 13:27:56;;;;;;;1.70;1.20;;;;;;;;;;5084519;28;20231;-84
2023/01/17 13:30:32;;;;;;;1.17;0.80;;;;;;;;;;5076829;28;20295;-82
2023/01/17 13:33:19;;;;;;;0.80;0.80;;;;;;;;;;5077073;28;20200;-83
2023/01/17 13:35:51;;;;;;;1.00;1.00;;;;;;;;;;5081544;28;20252;-82
2023/01/17 13:38:24;;;;;;;0.90;0.90;;;;;;;;;;5072905;28;20202;-82
2023/01/17 13:40:54;;;;;;;4.40;1.43;;;;;;;;;;5077615;28;20308;-83
2023/01/17 13:43:25;;;;;;;1.53;1.43;;;;;;;;;;5080644;28;20247;-82
2023/01/17 13:45:55;;;;;;;3.93;1.80;;;;;;;;;;5078026;28;20257;-82
2023/01/17 13:48:29;;;;;;;1.20;1.20;;;;;;;;;;5075626;28;20201;-82
2023/01/17 13:50:59;;;;;;;1.30;1.30;;;;;;;;;;5076512;28;20207;-82
2023/01/17 13:53:55;;;;;;;1.37;1.37;;;;;;;;;;5075814;28;20194;-81
2023/01/17 13:56:33;;;;;;;1.70;1.20;;;;;;;;;;5080723;28;20208;-82
2023/01/17 13:59:05;;;;;;;1.20;1.20;;;;;;;;;;5076636;28;20201;-83
2023/01/17 14:01:50;;;;;;;1.23;1.20;;;;;;;;;;5085945;28;20219;-83
2023/01/17 14:04:20;;;;;;;1.30;1.30;;;;;;;;;;5080535;28;20235;-83
2023/01/17 14:06:54;;;;;;;2.63;1.57;;;;;;;;;;5075742;28;20252;-85
2023/01/17 14:09:24;;;;;;;0.93;0.93;;;;;;;;;;5075308;28;20198;-84
2023/01/17 14:11:55;;;;;;;1.57;1.47;;;;;;;;;;5072624;28;20258;-83
2023/01/17 14:14:42;;;;;;;1.00;1.00;;;;;;;;;;5075121;28;20303;-83
2023/01/17 14:17:29;;;;;;;1.60;1.23;;;;;;;;;;5094920;28;20275;-86
2023/01/17 14:20:02;;;;;;;3.30;2.67;;;;;;;;;;5069851;28;20335;-82
2023/01/17 14:22:32;;;;;;;1.40;1.20;;;;;;;;;;5077256;28;20231;-84
2023/01/17 14:25:02;;;;;;;0.90;0.90;;;;;;;;;;5074485;28;20202;-83
2023/01/17 14:27:33;;;;;;;1.40;1.23;;;;;;;;;;5073922;28;20189;-85
2023/01/17 14:30:03;;;;;;;1.00;1.00;;;;;;;;;;5077642;28;20254;-84
2023/01/17 14:32:34;;;;;;;0.87;0.87;;;;;;;;;;5094976;28;20201;-87
2023/01/17 14:35:04;;;;;;;2.17;1.00;;;;;;;;;;5071522;28;20208;-83
2023/01/17 14:37:43;;;;;;;1.00;1.00;;;;;;;;;;5075675;28;20288;-83
2023/01/17 14:40:19;;;;;;;0.90;0.90;;;;;;;;;;5078587;28;20233;-82
2023/01/17 14:42:48;;;;;;;1.20;1.20;;;;;;;;;;5077455;28;20203;-85
2023/01/17 14:45:21;;;;;;;1.30;1.20;;;;;;;;;;5074732;28;20204;-83
2023/01/17 14:47:51;;;;;;;1.20;1.10;;;;;;;;;;5082724;28;20638;-83
2023/01/17 14:50:25;;;;;;;1.27;1.27;;;;;;;;;;5089316;28;20247;-84
2023/01/17 14:53:07;;;;;;;1.03;1.03;;;;;;;;;;5083211;28;20201;-83
2023/01/17 14:55:36;;;;;;;1.80;1.70;;;;;;;;;;5076931;28;20284;-83
2023/01/17 14:58:05;;;;;;;1.47;1.33;;;;;;;;;;5086344;28;20304;-83
2023/01/17 15:00:38;;;;;;;0.90;0.90;;;;;;;;;;5082780;28;20264;-84
2023/01/17 15:03:11;;;;;;;1.13;1.13;;;;;;;;;;5083146;28;20195;-85
2023/01/17 15:05:42;;;;;;;0.80;0.80;;;;;;;;;;5082768;28;20217;-83
2023/01/17 15:08:12;;;;;;;1.50;1.10;;;;;;;;;;5075410;28;20193;-82
2023/01/17 15:10:46;;;;;;;0.90;0.90;;;;;;;;;;5074851;28;20293;-83
2023/01/17 15:13:17;;;;;;;1.17;1.07;;;;;;;;;;5081062;28;20303;-82
2023/01/17 15:16:02;;;;;;;1.40;1.20;;;;;;;;;;5079285;28;20211;-82
2023/01/17 15:18:35;;;;;;;1.27;1.10;;;;;;;;;;5084237;28;20212;-83
2023/01/17 15:21:06;;;;;;;0.90;0.90;;;;;;;;;;5081380;28;20241;-84
2023/01/17 15:23:37;;;;;;;0.90;0.90;;;;;;;;;;5076310;28;20202;-83
2023/01/17 15:26:08;;;;;;;5.10;1.47;;;;;;;;;;5080961;28;20224;-83
2023/01/17 15:28:36;;;;;;;1.57;1.43;;;;;;;;;;5083476;28;20197;-83
2023/01/17 15:31:15;;;;;;;0.87;0.87;;;;;;;;;;5081959;28;20193;-84
2023/01/17 15:33:45;;;;;;;0.90;0.90;;;;;;;;;;5075198;28;20225;-84
2023/01/17 15:36:26;;;;;;;1.03;1.03;;;;;;;;;;5083498;28;20208;-85
2023/01/17 15:38:58;;;;;;;1.00;1.00;;;;;;;;;;5099735;28;20217;-85
2023/01/17 15:41:29;;;;;;;3.87;1.37;;;;;;;;;;5081666;28;20216;-86
2023/01/17 15:43:58;;;;;;;1.50;0.93;;;;;;;;;;5080008;28;20214;-83
2023/01/17 15:46:31;;;;;;;0.90;0.90;;;;;;;;;;5086730;28;20217;-83
2023/01/17 15:49:07;;;;;;;0.90;0.90;;;;;;;;;;5096353;28;20199;-83
2023/01/17 15:51:41;;;;;;;0.80;0.80;;;;;;;;;;5079917;28;20190;-82
2023/01/17 15:54:28;;;;;;;1.13;1.00;;;;;;;;;;5076080;28;20200;-84
2023/01/17 15:57:07;;;;;;;1.00;1.00;;;;;;;;;;5081196;28;20197;-87
2023/01/17 15:59:44;;;;;;;1.13;1.03;;;;;;;;;;5085298;28;20205;-87
2023/01/17 16:02:27;;;;;;;1.40;1.30;;;;;;;;;;5082103;28;20216;-87
2023/01/17 16:05:01;;;;;;;0.80;0.80;;;;;;;;;;5079229;28;20201;-84
2023/01/17 16:07:33;;;;;;;1.20;1.10;;;;;;;;;;5078930;28;20190;-86
2023/01/17 16:10:03;;;;;;;0.90;0.90;;;;;;;;;;5080887;28;20226;-86
2023/01/17 16:12:32;;;;;;;2.63;1.40;;;;;;;;;;5076542;28;20193;-86
2023/01/17 16:15:00;;;;;;;0.83;0.83;;;;;;;;;;5078715;28;20212;-86
2023/01/17 16:17:41;;;;;;;2.43;1.40;;;;;;;;;;5084117;28;20197;-86
2023/01/17 16:20:14;;;;;;;1.33;1.30;;;;;;;;;;5078948;28;20240;-86
2023/01/17 16:22:44;;;;;;;0.87;0.87;;;;;;;;;;5081065;28;20209;-86
2023/01/17 16:25:13;;;;;;;1.00;1.00;;;;;;;;;;5077654;28;20236;-86
2023/01/17 16:27:42;;;;;;;1.03;1.03;;;;;;;;;;5074111;28;20186;-86
2023/01/17 16:30:15;;;;;;;4.73;1.40;;;;;;;;;;5074042;28;20291;-86
2023/01/17 16:32:45;;;;;;;1.60;1.30;;;;;;;;;;5075103;28;20190;-86
2023/01/17 16:35:17;;;;;;;3.47;1.33;;;;;;;;;;5073785;28;20292;-86
2023/01/17 16:37:48;;;;;;;2.40;1.33;;;;;;;;;;5075420;28;20229;-86